Atlanta, Georgia
Traffic Map
Current Weather Conditions
Atlanta, Georgia
Few Clouds
Few Clouds
77°
Feels Like: 78°
Wind Chill: 77° Ceiling: Unl
Heat Index: 78° Visibility: 10mi
Dew Point: 50° Wind: 9mph
Humidity: 39% Direction: 10° (N)
Pressure: 30.06in Gusts: 0mph
Raw Report DataKATL 011852Z 01008KT 10SM FEW065 25/10 A3006 RMK AO2 SLP175 T02500100 $
Traffic Incident Summary
Active as of:
Severity:
Category:
InformationThere was an issue retrieving the traffic information for this location. Please try a different location or try again shortly.
Advertisements
Track Severe Weather on mobile